createdAt,value
2017-08-09T00:01:52.475Z,45.20
2017-08-09T00:04:20.072Z,45.80
2017-08-09T00:06:47.638Z,46.43
2017-08-09T00:09:15.181Z,46.23
2017-08-09T00:11:42.758Z,42.17
2017-08-09T00:14:10.321Z,48.50
2017-08-09T00:16:37.871Z,43.70
2017-08-09T00:19:05.442Z,48.33
2017-08-09T00:21:32.982Z,45.20
2017-08-09T00:24:00.535Z,45.40
2017-08-09T00:26:28.119Z,44.70
2017-08-09T00:28:55.673Z,44.97
2017-08-09T00:31:23.242Z,44.03
2017-08-09T00:33:50.826Z,43.07
2017-08-09T00:36:18.375Z,47.27
2017-08-09T00:38:45.940Z,44.50
2017-08-09T00:41:13.530Z,44.63
2017-08-09T00:43:41.066Z,43.80
2017-08-09T00:46:08.623Z,46.67
2017-08-09T00:48:36.207Z,48.53
2017-08-09T00:51:03.755Z,48.23
2017-08-09T00:53:31.318Z,49.13
2017-08-09T00:55:58.905Z,48.37
2017-08-09T00:58:26.449Z,44.77
2017-08-09T01:00:54.009Z,48.87
2017-08-09T01:03:21.605Z,47.53
2017-08-09T01:05:49.150Z,46.33
2017-08-09T01:08:16.690Z,52.80
2017-08-09T01:10:44.265Z,49.23
2017-08-09T01:13:11.828Z,48.13
2017-08-09T01:15:39.371Z,50.53
2017-08-09T01:18:06.964Z,46.70
2017-08-09T01:20:34.529Z,49.30
2017-08-09T01:23:02.075Z,50.47
2017-08-09T01:25:29.673Z,53.00
2017-08-09T01:27:57.227Z,55.43
2017-08-09T01:30:24.792Z,52.63
2017-08-09T01:32:52.495Z,50.40
2017-08-09T01:35:20.816Z,49.37
2017-08-09T01:37:51.029Z,51.37
2017-08-09T01:40:19.125Z,51.97
2017-08-09T01:42:46.661Z,50.70
2017-08-09T01:45:14.225Z,50.10
2017-08-09T01:47:41.826Z,49.13
2017-08-09T01:50:09.366Z,52.07
2017-08-09T01:52:36.905Z,52.50
2017-08-09T01:55:04.473Z,48.77
2017-08-09T01:57:32.048Z,48.43
2017-08-09T01:59:59.636Z,48.77
2017-08-09T02:02:27.260Z,51.60
2017-08-09T02:04:54.818Z,47.90
2017-08-09T02:07:22.376Z,50.30
2017-08-09T02:09:49.960Z,41.63
2017-08-09T02:12:17.529Z,42.10
2017-08-09T02:14:45.093Z,42.13
2017-08-09T02:17:12.683Z,43.20
2017-08-09T02:19:40.231Z,43.47
2017-08-09T02:22:07.798Z,42.83
2017-08-09T02:24:35.401Z,45.97
2017-08-09T02:27:02.942Z,44.37
2017-08-09T02:29:30.515Z,44.33
2017-08-09T02:31:58.098Z,43.57
2017-08-09T02:34:25.648Z,46.87
2017-08-09T02:36:53.233Z,41.70
2017-08-09T02:39:20.815Z,46.13
2017-08-09T02:41:48.376Z,47.20
2017-08-09T02:44:15.919Z,43.33
2017-08-09T02:46:43.494Z,40.00
2017-08-09T02:49:11.057Z,38.67
2017-08-09T02:51:38.627Z,40.50
2017-08-09T02:54:06.217Z,38.30
2017-08-09T02:56:33.780Z,39.00
2017-08-09T02:59:01.344Z,37.03
2017-08-09T03:01:28.944Z,36.50
2017-08-09T03:03:56.509Z,36.60
2017-08-09T03:06:24.066Z,36.03
2017-08-09T03:08:51.649Z,35.57
2017-08-09T03:11:19.211Z,34.97
2017-08-09T03:13:46.772Z,35.80
2017-08-09T03:16:14.359Z,35.33
2017-08-09T03:18:41.903Z,35.60
2017-08-09T03:21:09.464Z,33.17
2017-08-09T03:23:37.033Z,33.30
2017-08-09T03:26:04.583Z,35.77
2017-08-09T03:28:32.130Z,36.70
2017-08-09T03:30:59.724Z,37.53
2017-08-09T03:33:27.283Z,36.80
2017-08-09T03:35:54.831Z,34.47
2017-08-09T03:38:22.417Z,34.07
2017-08-09T03:40:49.967Z,30.87
2017-08-09T03:43:17.507Z,34.23
2017-08-09T03:45:45.081Z,36.47
2017-08-09T03:48:12.629Z,34.97
2017-08-09T03:50:40.191Z,35.10
2017-08-09T03:53:07.761Z,34.60
2017-08-09T03:55:35.303Z,32.53
2017-08-09T03:58:02.844Z,31.80
2017-08-09T04:00:31.182Z,32.87
2017-08-09T04:02:58.734Z,32.90
2017-08-09T04:05:26.287Z,33.40
2017-08-09T04:07:53.884Z,30.13
2017-08-09T04:10:21.435Z,30.73
2017-08-09T04:12:48.992Z,28.83
2017-08-09T04:15:16.585Z,29.83
2017-08-09T04:17:44.144Z,28.53
2017-08-09T04:20:11.686Z,30.10
2017-08-09T04:22:39.263Z,27.97
2017-08-09T04:25:07.570Z,29.40
2017-08-09T04:27:35.124Z,26.80
2017-08-09T04:30:03.463Z,26.23
2017-08-09T04:32:31.023Z,25.10
2017-08-09T04:34:58.561Z,26.40
2017-08-09T04:37:26.156Z,29.37
2017-08-09T04:39:53.717Z,29.97
2017-08-09T04:42:21.265Z,28.07
2017-08-09T04:44:48.858Z,27.37
2017-08-09T04:47:17.194Z,25.73
2017-08-09T04:49:44.736Z,27.10
2017-08-09T04:52:12.305Z,27.27
2017-08-09T04:54:39.873Z,26.37
2017-08-09T04:57:07.424Z,24.57
2017-08-09T04:59:35.981Z,24.93
2017-08-09T05:02:03.540Z,23.30
2017-08-09T05:04:31.675Z,22.30
2017-08-09T05:06:59.250Z,21.50
2017-08-09T05:09:26.820Z,21.73
2017-08-09T05:11:54.369Z,21.30
2017-08-09T05:14:21.942Z,22.27
2017-08-09T05:16:49.490Z,18.57
2017-08-09T05:19:17.038Z,20.93
2017-08-09T05:21:44.657Z,18.70
2017-08-09T05:24:12.210Z,18.10
2017-08-09T05:26:39.759Z,19.27
2017-08-09T05:29:07.334Z,17.70
2017-08-09T05:31:34.893Z,16.23
2017-08-09T05:34:02.447Z,16.17
2017-08-09T05:36:30.023Z,18.07
2017-08-09T05:38:57.596Z,16.80
2017-08-09T05:41:25.147Z,17.37
2017-08-09T05:43:53.504Z,16.80
2017-08-09T05:46:21.059Z,15.83
2017-08-09T05:48:48.619Z,15.10
2017-08-09T05:51:16.205Z,14.90
2017-08-09T05:53:43.773Z,13.80
2017-08-09T05:56:12.099Z,15.00
2017-08-09T05:58:39.676Z,14.67
2017-08-09T06:01:07.241Z,14.07
2017-08-09T06:03:34.808Z,11.90
2017-08-09T06:06:02.400Z,12.70
2017-08-09T06:08:29.958Z,11.73
2017-08-09T06:10:57.507Z,11.30
2017-08-09T06:13:25.101Z,11.90
2017-08-09T06:15:52.665Z,10.77
2017-08-09T06:18:27.726Z,11.70
2017-08-09T06:20:55.283Z,10.30
2017-08-09T06:23:22.826Z,10.00
2017-08-09T06:25:50.402Z,9.33
2017-08-09T06:28:17.997Z,9.33
2017-08-09T06:30:45.562Z,9.90
2017-08-09T06:33:13.130Z,10.10
2017-08-09T06:35:40.692Z,10.97
2017-08-09T06:38:08.231Z,9.90
2017-08-09T06:40:35.829Z,10.50
2017-08-09T06:43:03.424Z,9.93
2017-08-09T06:45:30.965Z,11.17
2017-08-09T06:47:59.313Z,10.90
2017-08-09T06:50:26.866Z,10.70
2017-08-09T06:52:54.418Z,11.13
2017-08-09T06:55:22.010Z,12.67
2017-08-09T06:57:49.569Z,9.07
2017-08-09T07:00:17.128Z,11.20
2017-08-09T07:02:44.716Z,9.83
2017-08-09T07:05:13.047Z,11.47
2017-08-09T07:07:40.613Z,11.37
2017-08-09T07:10:08.516Z,9.63
2017-08-09T07:12:36.179Z,9.20
2017-08-09T07:15:03.842Z,9.93
2017-08-09T07:17:31.449Z,9.50
2017-08-09T07:19:59.076Z,10.17
2017-08-09T07:22:27.004Z,9.60
2017-08-09T07:24:54.592Z,9.20
2017-08-09T07:27:22.146Z,9.97
2017-08-09T07:29:49.703Z,8.03
2017-08-09T07:32:17.287Z,8.80
2017-08-09T07:34:44.838Z,7.67
2017-08-09T07:37:12.404Z,9.60
2017-08-09T07:39:39.997Z,7.50
2017-08-09T07:42:08.321Z,7.07
2017-08-09T07:44:35.879Z,7.60
2017-08-09T07:47:03.457Z,6.53
2017-08-09T07:49:30.991Z,6.30
2017-08-09T07:51:58.552Z,7.90
2017-08-09T07:54:26.140Z,7.43
2017-08-09T07:56:53.698Z,6.77
2017-08-09T07:59:21.253Z,7.17
2017-08-09T08:01:48.864Z,6.20
2017-08-09T08:04:17.196Z,7.70
2017-08-09T08:06:44.750Z,6.87
2017-08-09T08:09:12.520Z,5.20
2017-08-09T08:11:40.085Z,5.70
2017-08-09T08:14:07.630Z,6.20
2017-08-09T08:16:35.224Z,6.50
2017-08-09T08:19:02.767Z,5.90
2017-08-09T08:21:30.311Z,5.40
2017-08-09T08:23:57.887Z,5.00
2017-08-09T08:26:25.430Z,4.70
2017-08-09T08:28:52.981Z,5.47
2017-08-09T08:31:20.578Z,4.97
2017-08-09T08:33:48.138Z,5.70
2017-08-09T08:36:15.693Z,6.27
2017-08-09T08:38:43.284Z,5.63
2017-08-09T08:41:10.818Z,5.40
2017-08-09T08:43:38.365Z,4.70
2017-08-09T08:46:05.948Z,5.27
2017-08-09T08:48:33.513Z,4.87
2017-08-09T08:51:01.069Z,4.80
2017-08-09T08:53:28.662Z,4.03
2017-08-09T08:55:56.207Z,3.77
2017-08-09T08:58:23.766Z,4.00
2017-08-09T09:00:51.364Z,3.73
2017-08-09T09:03:18.925Z,3.33
2017-08-09T09:05:46.481Z,3.50
2017-08-09T09:08:14.083Z,2.87
2017-08-09T09:10:41.641Z,2.73
2017-08-09T09:13:09.199Z,3.13
2017-08-09T09:15:36.780Z,3.03
2017-08-09T09:18:04.327Z,2.80
2017-08-09T09:20:31.884Z,2.97
2017-08-09T09:22:59.470Z,3.30
2017-08-09T09:25:27.033Z,3.30
2017-08-09T09:27:54.570Z,3.43
2017-08-09T09:30:22.152Z,3.57
2017-08-09T09:32:49.712Z,2.90
2017-08-09T09:35:17.250Z,2.50
2017-08-09T09:37:44.818Z,2.67
2017-08-09T09:40:12.368Z,2.63
2017-08-09T09:42:40.671Z,2.70
2017-08-09T09:45:08.261Z,2.07
2017-08-09T09:47:35.810Z,2.10
2017-08-09T09:50:03.365Z,1.60
2017-08-09T09:52:30.945Z,1.93
2017-08-09T09:54:58.482Z,2.30
2017-08-09T09:57:26.026Z,2.00
2017-08-09T09:59:54.354Z,2.10
2017-08-09T10:02:21.908Z,2.17
2017-08-09T10:04:50.317Z,2.50
2017-08-09T10:07:17.893Z,2.20
2017-08-09T10:09:46.216Z,2.60
2017-08-09T10:12:13.749Z,3.00
2017-08-09T10:14:42.097Z,2.10
2017-08-09T10:17:09.632Z,2.20
2017-08-09T10:19:37.177Z,2.40
2017-08-09T10:22:04.744Z,2.60
2017-08-09T10:24:32.292Z,2.50
2017-08-09T10:26:59.844Z,2.30
2017-08-09T10:29:27.429Z,2.27
2017-08-09T10:31:54.970Z,2.20
2017-08-09T10:34:22.531Z,1.73
2017-08-09T10:36:50.094Z,2.40
2017-08-09T10:39:17.653Z,2.00
2017-08-09T10:41:45.828Z,2.20
2017-08-09T10:44:14.429Z,1.93
2017-08-09T10:46:41.968Z,2.20
2017-08-09T10:49:10.294Z,2.00
2017-08-09T10:51:37.862Z,2.90
2017-08-09T10:54:05.398Z,2.47
2017-08-09T10:56:32.929Z,2.00
2017-08-09T10:59:01.309Z,1.77
2017-08-09T11:01:29.705Z,1.93
2017-08-09T11:03:57.564Z,2.17
2017-08-09T11:06:27.460Z,2.07
2017-08-09T11:08:57.119Z,2.00
2017-08-09T11:11:25.016Z,2.30
2017-08-09T11:13:52.639Z,2.03
2017-08-09T11:16:20.192Z,2.03
2017-08-09T11:22:19.028Z,2.40
2017-08-09T11:24:46.779Z,2.20
2017-08-09T11:27:15.348Z,2.27
2017-08-09T11:29:43.133Z,1.63
2017-08-09T11:32:14.870Z,2.10
2017-08-09T11:34:42.429Z,1.83
2017-08-09T11:37:10.010Z,2.40
2017-08-09T11:39:38.344Z,1.83
2017-08-09T11:42:06.348Z,1.97
2017-08-09T11:44:33.915Z,2.03
2017-08-09T11:47:01.466Z,2.07
2017-08-09T11:49:29.456Z,1.77
2017-08-09T11:51:57.786Z,1.77
2017-08-09T11:54:25.338Z,2.00
2017-08-09T11:56:53.042Z,1.50
2017-08-09T11:59:20.681Z,2.07
2017-08-09T12:01:48.235Z,1.77
2017-08-09T12:04:15.808Z,2.10
2017-08-09T12:06:43.383Z,2.10
2017-08-09T12:09:10.942Z,2.47
2017-08-09T12:11:38.527Z,2.73
2017-08-09T12:14:06.088Z,2.20
2017-08-09T12:16:33.654Z,2.63
2017-08-09T12:19:02.020Z,2.20
2017-08-09T12:21:29.723Z,1.50
2017-08-09T12:23:57.293Z,1.73
2017-08-09T12:26:24.893Z,1.50
2017-08-09T12:28:52.463Z,1.97
2017-08-09T12:31:20.029Z,1.73
2017-08-09T12:33:47.625Z,1.47
2017-08-09T12:36:15.943Z,1.93
2017-08-09T12:38:43.674Z,1.80
2017-08-09T12:41:11.268Z,2.07
2017-08-09T12:43:38.802Z,2.13
2017-08-09T12:46:06.339Z,2.40
2017-08-09T12:48:33.920Z,1.97
2017-08-09T12:51:01.464Z,2.43
2017-08-09T12:53:28.999Z,2.13
2017-08-09T12:55:56.586Z,2.00
2017-08-09T12:58:24.162Z,1.77
2017-08-09T13:00:52.473Z,1.80
2017-08-09T13:03:20.055Z,2.43
2017-08-09T13:05:47.621Z,2.07
2017-08-09T13:08:15.178Z,2.10
2017-08-09T13:10:42.742Z,2.93
2017-08-09T13:13:10.301Z,1.87
2017-08-09T13:15:37.861Z,1.80
2017-08-09T13:18:05.455Z,2.60
2017-08-09T13:20:33.003Z,2.20
2017-08-09T13:23:00.552Z,2.23
2017-08-09T13:25:28.126Z,2.40
2017-08-09T13:27:55.673Z,2.80
2017-08-09T13:30:23.219Z,2.10
2017-08-09T13:32:50.779Z,2.50
2017-08-09T13:35:18.317Z,2.50
2017-08-09T13:37:46.634Z,2.60
2017-08-09T13:40:14.212Z,2.47
2017-08-09T13:42:41.748Z,2.07
2017-08-09T13:45:09.308Z,2.10
2017-08-09T13:47:36.907Z,2.30
2017-08-09T13:50:04.459Z,2.40
2017-08-09T13:52:32.042Z,2.63
2017-08-09T13:55:00.398Z,2.23
2017-08-09T13:57:27.954Z,2.07
2017-08-09T13:59:55.498Z,2.00
2017-08-09T14:02:23.145Z,2.23
2017-08-09T14:04:50.721Z,3.10
2017-08-09T14:07:18.272Z,1.90
2017-08-09T14:09:45.860Z,1.90
2017-08-09T14:12:13.419Z,2.13
2017-08-09T14:14:40.956Z,2.03
2017-08-09T14:17:08.647Z,2.10
2017-08-09T14:19:36.179Z,2.30
2017-08-09T14:22:03.719Z,2.20
2017-08-09T14:24:32.067Z,2.30
2017-08-09T14:26:59.614Z,2.10
2017-08-09T14:29:27.157Z,2.43
2017-08-09T14:31:54.779Z,3.00
2017-08-09T14:34:22.325Z,2.10
2017-08-09T14:36:49.873Z,2.00
2017-08-09T14:39:17.478Z,2.33
2017-08-09T14:41:45.799Z,2.13
2017-08-09T14:44:13.355Z,2.60
2017-08-09T14:46:40.941Z,2.70
2017-08-09T14:49:08.497Z,2.20
2017-08-09T14:51:36.075Z,2.30
2017-08-09T14:54:03.653Z,2.10
2017-08-09T14:56:31.200Z,2.60
2017-08-09T14:58:58.730Z,2.20
2017-08-09T15:01:26.348Z,2.43
2017-08-09T15:03:54.671Z,2.30
2017-08-09T15:06:22.211Z,2.13
2017-08-09T15:08:49.900Z,2.00
2017-08-09T15:11:17.435Z,2.20
2017-08-09T15:13:44.972Z,2.20
2017-08-09T15:16:13.301Z,2.60
2017-08-09T15:18:40.972Z,2.80
2017-08-09T15:21:08.508Z,2.67
2017-08-09T15:23:36.102Z,2.70
2017-08-09T15:26:03.665Z,2.90
2017-08-09T15:28:31.219Z,2.50
2017-08-09T15:30:58.791Z,2.63
2017-08-09T15:33:26.345Z,2.07
2017-08-09T15:35:53.882Z,2.80
2017-08-09T15:38:21.459Z,2.40
2017-08-09T15:40:49.008Z,2.63
2017-08-09T15:43:16.571Z,2.50
2017-08-09T15:45:46.748Z,2.67
2017-08-09T15:48:14.285Z,2.90
2017-08-09T15:50:41.833Z,1.97
2017-08-09T15:53:09.412Z,2.37
2017-08-09T15:55:36.947Z,2.30
2017-08-09T15:58:04.506Z,2.10
2017-08-09T16:00:32.107Z,2.20
2017-08-09T16:02:59.639Z,2.43
2017-08-09T16:05:27.222Z,3.10
2017-08-09T16:07:54.805Z,2.30
2017-08-09T16:10:22.361Z,2.40
2017-08-09T16:12:49.942Z,2.53
2017-08-09T16:15:18.288Z,2.27
2017-08-09T16:17:45.823Z,2.70
2017-08-09T16:20:13.675Z,2.30
2017-08-09T16:22:41.243Z,2.40
2017-08-09T16:25:11.559Z,2.67
2017-08-09T16:27:39.106Z,2.57
2017-08-09T16:30:07.454Z,2.30
2017-08-09T16:32:35.012Z,2.20
2017-08-09T16:35:02.558Z,2.77
2017-08-09T16:37:30.149Z,2.50
2017-08-09T16:39:57.691Z,2.30
2017-08-09T16:42:25.478Z,2.53
2017-08-09T16:44:53.074Z,2.30
2017-08-09T16:47:21.081Z,2.67
2017-08-09T16:49:48.714Z,1.97
2017-08-09T16:52:16.286Z,2.20
2017-08-09T16:54:43.860Z,2.77
2017-08-09T16:57:11.405Z,2.90
2017-08-09T16:59:38.978Z,1.97
2017-08-09T17:02:06.534Z,1.80
2017-08-09T17:04:34.109Z,2.50
2017-08-09T17:07:01.698Z,2.43
2017-08-09T17:09:29.245Z,2.10
2017-08-09T17:11:56.783Z,2.43
2017-08-09T17:14:24.363Z,2.10
2017-08-09T17:16:51.904Z,2.40
2017-08-09T17:19:19.458Z,2.17
2017-08-09T17:21:47.052Z,2.03
2017-08-09T17:24:14.613Z,2.63
2017-08-09T17:26:42.167Z,2.07
2017-08-09T17:29:12.652Z,1.97
2017-08-09T17:31:42.391Z,2.40
2017-08-09T17:34:09.997Z,2.27
2017-08-09T17:36:37.536Z,2.83
2017-08-09T17:39:05.074Z,2.93
2017-08-09T17:41:32.687Z,2.80
2017-08-09T17:44:00.257Z,2.30
2017-08-09T17:46:27.809Z,2.53
2017-08-09T17:48:55.390Z,3.00
2017-08-09T17:51:22.923Z,2.10
2017-08-09T17:53:50.468Z,2.63
2017-08-09T17:56:18.065Z,2.47
2017-08-09T17:58:45.599Z,2.60
2017-08-09T18:01:13.140Z,2.60
2017-08-09T18:03:40.783Z,2.40
2017-08-09T18:06:09.102Z,2.67
2017-08-09T18:08:36.657Z,2.23
2017-08-09T18:11:04.246Z,2.23
2017-08-09T18:13:31.808Z,3.60
2017-08-09T18:15:59.404Z,2.67
2017-08-09T18:18:27.753Z,2.20
2017-08-09T18:20:55.295Z,1.80
2017-08-09T18:23:22.851Z,2.10
2017-08-09T18:25:50.465Z,2.50
2017-08-09T18:28:18.978Z,2.13
2017-08-09T18:30:46.532Z,2.40
2017-08-09T18:33:14.113Z,2.97
2017-08-09T18:35:41.727Z,2.17
2017-08-09T18:38:09.295Z,2.50
2017-08-09T18:40:36.910Z,4.97
2017-08-09T18:43:05.917Z,3.87
2017-08-09T18:45:33.566Z,2.50
2017-08-09T18:48:01.205Z,2.90
2017-08-09T18:50:34.169Z,2.80
2017-08-09T18:53:01.992Z,2.53
2017-08-09T18:55:29.544Z,3.00
2017-08-09T18:57:57.178Z,2.80
2017-08-09T19:00:28.292Z,2.27
2017-08-09T19:02:55.895Z,2.90
2017-08-09T19:05:23.431Z,2.33
2017-08-09T19:07:51.534Z,3.33
2017-08-09T19:10:19.074Z,2.93
2017-08-09T19:12:47.401Z,3.10
2017-08-09T19:15:15.843Z,2.90
2017-08-09T19:17:43.403Z,3.13
2017-08-09T19:20:11.733Z,4.63
2017-08-09T19:22:39.301Z,4.20
2017-08-09T19:25:06.899Z,4.13
2017-08-09T19:27:34.495Z,4.03
2017-08-09T19:30:03.412Z,4.50
2017-08-09T19:32:30.984Z,4.70
2017-08-09T19:34:58.530Z,5.13
2017-08-09T19:37:26.124Z,4.97
2017-08-09T19:39:53.710Z,4.67
2017-08-09T19:42:21.282Z,5.17
2017-08-09T19:44:49.627Z,4.57
2017-08-09T19:47:17.345Z,5.43
2017-08-09T19:49:44.880Z,4.80
2017-08-09T19:52:13.224Z,5.57
2017-08-09T19:54:40.774Z,4.80
2017-08-09T19:57:08.433Z,5.37
2017-08-09T19:59:36.684Z,4.93
2017-08-09T20:02:04.762Z,6.17
2017-08-09T20:04:32.359Z,6.47
2017-08-09T20:07:02.163Z,6.10
2017-08-09T20:09:29.782Z,6.30
2017-08-09T20:11:58.269Z,5.83
2017-08-09T20:14:25.874Z,6.57
2017-08-09T20:16:53.414Z,5.77
2017-08-09T20:19:21.118Z,6.57
2017-08-09T20:21:48.950Z,7.60
2017-08-09T20:24:16.516Z,7.60
2017-08-09T20:26:44.059Z,6.90
2017-08-09T20:29:11.653Z,6.87
2017-08-09T20:31:39.220Z,7.03
2017-08-09T20:34:06.767Z,6.60
2017-08-09T20:36:34.349Z,6.73
2017-08-09T20:39:01.898Z,7.07
2017-08-09T20:41:29.457Z,6.80
2017-08-09T20:43:57.021Z,7.13
2017-08-09T20:46:24.582Z,6.30
2017-08-09T20:48:52.111Z,5.90
2017-08-09T20:51:19.696Z,6.30
2017-08-09T20:53:47.235Z,7.30
2017-08-09T20:56:14.783Z,6.30
2017-08-09T20:58:43.136Z,7.10
2017-08-09T21:01:10.696Z,7.23
2017-08-09T21:03:38.229Z,7.30
2017-08-09T21:06:05.821Z,7.97
2017-08-09T21:08:33.358Z,7.03
2017-08-09T21:11:00.898Z,6.43
2017-08-09T21:13:28.490Z,5.77
2017-08-09T21:15:56.047Z,6.30
2017-08-09T21:18:23.585Z,6.40
2017-08-09T21:20:51.146Z,5.60
2017-08-09T21:23:18.694Z,6.03
2017-08-09T21:25:46.261Z,4.80
2017-08-09T21:28:13.864Z,5.90
2017-08-09T21:30:41.403Z,5.33
2017-08-09T21:33:08.934Z,6.00
2017-08-09T21:35:36.510Z,5.83
2017-08-09T21:38:04.068Z,5.30
2017-08-09T21:40:31.630Z,5.50
2017-08-09T21:42:59.198Z,5.83
2017-08-09T21:45:26.730Z,5.47
2017-08-09T21:47:55.052Z,6.50
2017-08-09T21:50:22.951Z,5.80
2017-08-09T21:52:50.556Z,5.37
2017-08-09T21:55:18.132Z,5.10
2017-08-09T21:57:45.711Z,5.93
2017-08-09T22:00:13.254Z,5.77
2017-08-09T22:02:40.808Z,5.50
2017-08-09T22:05:09.151Z,4.93
2017-08-09T22:07:36.705Z,5.73
2017-08-09T22:10:04.244Z,5.27
2017-08-09T22:12:31.818Z,6.13
2017-08-09T22:14:59.357Z,5.80
2017-08-09T22:17:26.906Z,6.30
2017-08-09T22:19:54.492Z,6.00
2017-08-09T22:22:22.041Z,5.60
2017-08-09T22:24:49.582Z,6.00
2017-08-09T22:27:17.158Z,6.40
2017-08-09T22:29:44.705Z,7.73
2017-08-09T22:32:12.270Z,6.43
2017-08-09T22:34:39.857Z,6.17
2017-08-09T22:37:07.405Z,6.47
2017-08-09T22:39:34.952Z,6.10
2017-08-09T22:42:02.540Z,5.83
2017-08-09T22:44:30.110Z,6.50
2017-08-09T22:46:57.671Z,6.83
2017-08-09T22:49:25.242Z,6.77
2017-08-09T22:51:52.800Z,6.23
2017-08-09T22:54:20.355Z,6.03
2017-08-09T22:56:47.945Z,6.30
2017-08-09T22:59:15.494Z,6.50
2017-08-09T23:01:43.146Z,6.20
2017-08-09T23:04:10.732Z,5.90
2017-08-09T23:06:38.289Z,6.57
2017-08-09T23:09:06.120Z,6.70
2017-08-09T23:11:33.770Z,6.53
2017-08-09T23:14:01.316Z,6.70
2017-08-09T23:16:28.860Z,6.10
2017-08-09T23:18:56.436Z,6.20
2017-08-09T23:21:23.983Z,6.70
2017-08-09T23:23:51.525Z,6.33
2017-08-09T23:26:19.116Z,6.00
2017-08-09T23:28:47.430Z,6.07
2017-08-09T23:31:14.970Z,6.77
2017-08-09T23:33:43.304Z,6.67
2017-08-09T23:36:10.875Z,6.47
2017-08-09T23:38:38.410Z,5.87
2017-08-09T23:41:05.994Z,6.47
2017-08-09T23:43:33.537Z,5.87
2017-08-09T23:46:01.094Z,5.60
2017-08-09T23:48:28.684Z,5.47
2017-08-09T23:50:56.222Z,6.50
2017-08-09T23:53:23.785Z,5.93
2017-08-09T23:55:51.557Z,5.53
2017-08-09T23:58:19.382Z,5.60
